TimeCDT,TemperatureF,Dew PointF,Humidity,Sea Level PressureIn,VisibilityMPH,Wind Direction,Wind SpeedMPH,Gust SpeedMPH,PrecipitationIn,Events,Conditions,WindDirDegrees,DateUTC
12:56 AM,62.1,60.1,93,30.13,10.0,Calm,Calm,-,N/A,,Clear,0,2012-10-11 05:56:00
1:56 AM,64.9,63.0,93,30.12,9.0,NNE,3.5,-,N/A,,Mostly Cloudy,30,2012-10-11 06:56:00
2:56 AM,61.0,60.1,97,30.11,5.0,Calm,Calm,-,N/A,,Partly Cloudy,0,2012-10-11 07:56:00
3:56 AM,61.0,59.0,93,30.12,5.0,Calm,Calm,-,N/A,,Clear,0,2012-10-11 08:56:00
4:56 AM,61.0,59.0,93,30.13,6.0,Calm,Calm,-,N/A,,Clear,0,2012-10-11 09:56:00
5:56 AM,59.0,57.9,96,30.14,6.0,North,3.5,-,N/A,,Clear,360,2012-10-11 10:56:00
6:56 AM,60.1,59.0,96,30.16,6.0,Calm,Calm,-,N/A,,Clear,0,2012-10-11 11:56:00
7:56 AM,66.0,63.0,90,30.18,7.0,Calm,Calm,-,N/A,,Clear,0,2012-10-11 12:56:00
8:56 AM,70.0,64.0,81,30.20,9.0,NE,4.6,-,N/A,,Clear,50,2012-10-11 13:56:00
9:56 AM,75.9,64.0,67,30.21,10.0,East,3.5,-,N/A,,Clear,80,2012-10-11 14:56:00
10:56 AM,80.1,63.0,56,30.20,10.0,East,6.9,-,N/A,,Partly Cloudy,80,2012-10-11 15:56:00
11:56 AM,81.0,63.0,54,30.19,10.0,ESE,5.8,-,N/A,,Clear,120,2012-10-11 16:56:00
12:56 PM,84.0,61.0,46,30.17,10.0,NW,4.6,-,N/A,,Clear,310,2012-10-11 17:56:00
1:56 PM,84.9,62.1,46,30.14,10.0,North,3.5,-,N/A,,Clear,360,2012-10-11 18:56:00
2:56 PM,84.9,62.1,46,30.13,10.0,ESE,4.6,-,N/A,,Clear,110,2012-10-11 19:56:00
3:56 PM,86.0,60.1,41,30.12,10.0,ENE,5.8,-,N/A,,Clear,70,2012-10-11 20:56:00
4:56 PM,84.0,62.1,47,30.13,10.0,SE,5.8,-,N/A,,Clear,140,2012-10-11 21:56:00
5:56 PM,77.0,64.9,66,30.14,10.0,South,6.9,-,N/A,,Clear,180,2012-10-11 22:56:00
6:56 PM,73.0,64.0,73,30.14,10.0,SW,3.5,-,N/A,,Clear,220,2012-10-11 23:56:00
7:56 PM,68.0,64.9,90,30.16,10.0,Calm,Calm,-,N/A,,Clear,0,2012-10-12 00:56:00
8:56 PM,66.0,63.0,90,30.17,9.0,Calm,Calm,-,N/A,,Clear,0,2012-10-12 01:56:00
9:56 PM,64.0,63.0,96,30.18,8.0,WNW,3.5,-,N/A,,Clear,300,2012-10-12 02:56:00
10:56 PM,64.0,62.1,93,30.19,7.0,North,3.5,-,N/A,,Clear,350,2012-10-12 03:56:00
11:56 PM,64.0,63.0,96,30.18,7.0,Calm,Calm,-,N/A,,Clear,0,2012-10-12 04:56:00